Terminal Aerodrome Forecast
Issued by NWS

Home | Current Version | Previous Version | Text Only | Print | Product List | Glossary On
Versions: 1 2 3 4 5 6 7 8 9 10 11 12
000
FTUS45 KGJT 190534
TAFEGE
TAF
KEGE 190534Z 1906/2006 12003KT P6SM SKC
     FM191200 12003KT P6SM FEW200
     FM192000 21004KT P6SM FEW150 SCT300=

USA.gov is the U.S. government's official web portal to all federal, state and local government web resources and services.